Time;durP1;ratioP1;P1;durP2;ratioP2;P2;SDS_P1;SDS_P2;PMS_P1;PMS_P2;Temp;Humidity;BMP_temperature;BMP_pressure;BME280_temperature;BME280_humidity;BME280_pressure;Samples;Min_cycle;Max_cycle;Signal;HPM_P1;HPM_P2
2023/09/18 00:02:25;;;;;;;25.05;20.92;;;;;;;;;;5119266;27;20270;-74
2023/09/18 00:04:50;;;;;;;28.17;23.63;;;;;;;;;;5117350;27;20278;-74
2023/09/18 00:07:15;;;;;;;23.20;20.73;;;;;;;;;;5109580;27;20627;-74
2023/09/18 00:09:41;;;;;;;25.30;22.00;;;;;;;;;;5117168;27;20199;-73
2023/09/18 00:12:06;;;;;;;27.35;24.15;;;;;;;;;;5128690;27;20218;-74
2023/09/18 00:14:32;;;;;;;25.92;22.88;;;;;;;;;;5110549;28;20222;-74
2023/09/18 00:16:57;;;;;;;26.95;24.10;;;;;;;;;;5111039;27;20290;-73
2023/09/18 00:19:24;;;;;;;34.92;29.45;;;;;;;;;;5110194;27;20715;-73
2023/09/18 00:21:51;;;;;;;38.65;30.20;;;;;;;;;;5122425;27;20703;-73
2023/09/18 00:24:17;;;;;;;43.38;34.15;;;;;;;;;;5111242;27;20183;-74
2023/09/18 00:26:42;;;;;;;36.25;30.60;;;;;;;;;;5111147;27;20198;-73
2023/09/18 00:29:07;;;;;;;37.47;32.40;;;;;;;;;;5122362;27;20183;-73
2023/09/18 00:31:33;;;;;;;35.45;28.63;;;;;;;;;;5124458;27;20210;-74
2023/09/18 00:33:58;;;;;;;42.20;34.22;;;;;;;;;;5101234;27;20475;-73
2023/09/18 00:36:24;;;;;;;49.58;35.65;;;;;;;;;;5112605;27;20713;-73
2023/09/18 00:38:49;;;;;;;49.08;37.65;;;;;;;;;;5110137;27;20312;-73
2023/09/18 00:41:14;;;;;;;45.92;36.60;;;;;;;;;;5111136;27;20595;-73
2023/09/18 00:43:40;;;;;;;47.13;36.00;;;;;;;;;;5116081;27;20194;-73
2023/09/18 00:46:05;;;;;;;47.00;35.33;;;;;;;;;;5124540;27;20187;-73
2023/09/18 00:48:31;;;;;;;45.83;36.70;;;;;;;;;;5117746;27;20210;-73
2023/09/18 00:50:56;;;;;;;41.78;34.95;;;;;;;;;;5125841;27;20238;-73
2023/09/18 00:53:24;;;;;;;42.03;33.92;;;;;;;;;;5115009;27;20322;-73
2023/09/18 00:55:53;;;;;;;46.35;36.35;;;;;;;;;;5114291;27;20240;-73
2023/09/18 00:58:18;;;;;;;41.30;34.55;;;;;;;;;;5135109;27;20186;-73
2023/09/18 01:00:44;;;;;;;49.53;37.63;;;;;;;;;;5131486;27;20205;-73
2023/09/18 01:03:10;;;;;;;45.55;37.72;;;;;;;;;;5132424;27;20687;-73
2023/09/18 01:05:36;;;;;;;47.40;36.70;;;;;;;;;;5142148;27;20506;-73
2023/09/18 01:08:02;;;;;;;45.75;37.13;;;;;;;;;;5123798;27;20179;-73
2023/09/18 01:10:36;;;;;;;46.78;37.42;;;;;;;;;;5127024;27;20693;-73
2023/09/18 01:13:13;;;;;;;45.72;36.25;;;;;;;;;;5094975;27;20193;-73
2023/09/18 01:15:54;;;;;;;45.75;36.03;;;;;;;;;;5109384;27;20310;-74
2023/09/18 01:18:19;;;;;;;40.90;34.72;;;;;;;;;;5118476;27;20295;-74
2023/09/18 01:20:45;;;;;;;44.08;33.47;;;;;;;;;;5122211;27;20397;-73
2023/09/18 01:23:11;;;;;;;44.90;34.30;;;;;;;;;;5120659;27;20188;-74
2023/09/18 01:25:37;;;;;;;41.35;32.92;;;;;;;;;;5135024;27;20191;-73
2023/09/18 01:28:02;;;;;;;44.25;34.72;;;;;;;;;;5122949;27;20190;-74
2023/09/18 01:30:28;;;;;;;40.75;31.77;;;;;;;;;;5130153;27;20577;-74
2023/09/18 01:32:55;;;;;;;43.15;34.88;;;;;;;;;;5115562;27;20189;-73
2023/09/18 01:35:22;;;;;;;44.85;35.53;;;;;;;;;;5142559;27;20186;-74
2023/09/18 01:37:49;;;;;;;44.35;35.70;;;;;;;;;;5151856;27;20310;-73
2023/09/18 01:40:15;;;;;;;41.63;35.42;;;;;;;;;;5130882;27;20193;-74
2023/09/18 01:42:41;;;;;;;46.63;36.42;;;;;;;;;;5132837;27;20195;-74
2023/09/18 01:45:07;;;;;;;46.40;35.38;;;;;;;;;;5128414;27;20552;-74
2023/09/18 01:47:33;;;;;;;46.20;35.47;;;;;;;;;;5128421;27;20230;-74
2023/09/18 01:50:05;;;;;;;45.85;36.15;;;;;;;;;;5149697;27;20209;-74
2023/09/18 01:52:31;;;;;;;44.75;36.58;;;;;;;;;;5140594;27;20228;-74
2023/09/18 01:54:56;;;;;;;48.20;36.53;;;;;;;;;;5146643;27;20217;-73
2023/09/18 01:57:21;;;;;;;45.35;36.70;;;;;;;;;;5122681;27;20226;-73
2023/09/18 01:59:47;;;;;;;46.33;34.92;;;;;;;;;;5113129;27;20179;-74
2023/09/18 02:02:12;;;;;;;46.78;36.20;;;;;;;;;;5141829;27;20622;-73
2023/09/18 02:04:38;;;;;;;46.15;36.38;;;;;;;;;;5139679;27;20187;-74
2023/09/18 02:07:03;;;;;;;42.00;35.03;;;;;;;;;;5123134;27;20286;-74
2023/09/18 02:09:29;;;;;;;48.58;36.10;;;;;;;;;;5111890;27;20516;-73
2023/09/18 02:11:54;;;;;;;52.53;36.10;;;;;;;;;;5138139;27;20221;-74
2023/09/18 02:14:19;;;;;;;44.85;35.97;;;;;;;;;;5123824;27;20342;-74
2023/09/18 02:16:45;;;;;;;49.05;36.85;;;;;;;;;;5145065;27;20671;-74
2023/09/18 02:19:13;;;;;;;48.40;35.03;;;;;;;;;;5144657;27;20325;-74
2023/09/18 02:21:39;;;;;;;47.70;35.95;;;;;;;;;;5148220;27;20190;-74
2023/09/18 02:24:05;;;;;;;44.88;36.47;;;;;;;;;;5130540;27;20771;-74
2023/09/18 02:26:30;;;;;;;42.95;34.67;;;;;;;;;;5151182;27;20186;-74
2023/09/18 02:28:59;;;;;;;45.00;34.78;;;;;;;;;;5143978;27;20605;-74
2023/09/18 02:31:24;;;;;;;46.00;34.05;;;;;;;;;;5143450;27;20298;-74
2023/09/18 02:33:50;;;;;;;43.85;33.70;;;;;;;;;;5117229;27;20651;-74
2023/09/18 02:36:15;;;;;;;43.95;33.47;;;;;;;;;;5118902;27;20190;-74
2023/09/18 02:38:41;;;;;;;45.80;34.33;;;;;;;;;;5146730;27;20445;-74
2023/09/18 02:41:06;;;;;;;41.42;33.55;;;;;;;;;;5135286;27;20589;-74
2023/09/18 02:43:32;;;;;;;41.60;33.47;;;;;;;;;;5142536;27;20202;-74
2023/09/18 02:45:57;;;;;;;43.53;32.25;;;;;;;;;;5130222;27;20500;-74
2023/09/18 02:48:23;;;;;;;42.25;31.90;;;;;;;;;;5142609;27;20290;-74
2023/09/18 02:50:48;;;;;;;31.02;25.10;;;;;;;;;;5126177;27;20230;-74
2023/09/18 02:53:21;;;;;;;37.88;29.95;;;;;;;;;;5111226;27;20286;-74
2023/09/18 02:55:49;;;;;;;38.35;29.20;;;;;;;;;;5135387;27;20318;-74
2023/09/18 02:58:16;;;;;;;40.63;29.25;;;;;;;;;;5140061;27;20273;-74
2023/09/18 03:00:45;;;;;;;36.63;28.15;;;;;;;;;;5153644;27;20212;-74
2023/09/18 03:03:11;;;;;;;39.97;28.10;;;;;;;;;;5136786;27;20201;-74
2023/09/18 03:05:36;;;;;;;34.38;27.45;;;;;;;;;;5126502;27;20254;-73
2023/09/18 03:08:03;;;;;;;31.80;25.35;;;;;;;;;;5119528;27;20191;-74
2023/09/18 03:10:33;;;;;;;37.55;27.58;;;;;;;;;;5118348;27;20225;-74
2023/09/18 03:12:59;;;;;;;35.47;27.17;;;;;;;;;;5138735;27;20454;-74
2023/09/18 03:15:25;;;;;;;34.38;25.48;;;;;;;;;;5145463;27;20194;-73
2023/09/18 03:17:50;;;;;;;31.25;25.20;;;;;;;;;;5132827;27;20235;-73
2023/09/18 03:20:16;;;;;;;33.78;24.30;;;;;;;;;;5148086;27;20559;-73
2023/09/18 03:22:41;;;;;;;34.08;24.75;;;;;;;;;;5128696;27;20201;-73
2023/09/18 03:25:07;;;;;;;29.95;23.10;;;;;;;;;;5139731;27;20646;-73
2023/09/18 03:27:32;;;;;;;27.67;22.35;;;;;;;;;;5136804;27;20245;-73
2023/09/18 03:29:58;;;;;;;28.38;21.17;;;;;;;;;;5137861;27;20630;-74
2023/09/18 03:32:23;;;;;;;26.67;21.60;;;;;;;;;;5122090;27;20286;-73
2023/09/18 03:34:52;;;;;;;25.10;20.95;;;;;;;;;;5141285;27;20327;-73
2023/09/18 03:37:18;;;;;;;28.35;20.65;;;;;;;;;;5150424;27;20220;-74
2023/09/18 03:39:43;;;;;;;27.50;20.88;;;;;;;;;;5121252;27;20190;-74
2023/09/18 03:42:09;;;;;;;25.48;21.35;;;;;;;;;;5147183;27;20720;-74
2023/09/18 03:44:34;;;;;;;29.13;21.27;;;;;;;;;;5146789;27;20586;-74
2023/09/18 03:47:00;;;;;;;24.90;19.95;;;;;;;;;;5132539;27;20195;-74
2023/09/18 03:49:27;;;;;;;24.42;18.98;;;;;;;;;;5139823;27;20272;-74
2023/09/18 03:51:53;;;;;;;26.25;20.23;;;;;;;;;;5145277;27;20727;-74
2023/09/18 03:54:18;;;;;;;26.23;18.85;;;;;;;;;;5131824;27;20222;-74
2023/09/18 03:56:45;;;;;;;23.75;18.10;;;;;;;;;;5145304;27;20234;-74
2023/09/18 03:59:11;;;;;;;28.27;18.27;;;;;;;;;;5144520;27;20236;-74
2023/09/18 04:01:36;;;;;;;27.30;18.63;;;;;;;;;;5133334;27;20187;-74
2023/09/18 04:04:02;;;;;;;23.02;17.40;;;;;;;;;;5116827;27;20263;-74
2023/09/18 04:06:41;;;;;;;18.55;16.35;;;;;;;;;;5148476;27;20193;-74
2023/09/18 04:09:07;;;;;;;26.58;17.02;;;;;;;;;;5142878;27;20297;-74
2023/09/18 04:11:32;;;;;;;19.25;15.98;;;;;;;;;;5104480;27;20720;-74
2023/09/18 04:13:59;;;;;;;22.35;16.58;;;;;;;;;;5120623;27;20183;-74
2023/09/18 04:16:25;;;;;;;19.02;16.02;;;;;;;;;;5119273;27;20195;-74
2023/09/18 04:18:50;;;;;;;19.20;15.55;;;;;;;;;;5147375;27;20644;-74
2023/09/18 04:21:16;;;;;;;20.88;15.45;;;;;;;;;;5114584;27;20277;-74
2023/09/18 04:23:41;;;;;;;21.80;15.38;;;;;;;;;;5118630;27;20199;-74
2023/09/18 04:26:06;;;;;;;19.95;15.85;;;;;;;;;;5121291;27;20273;-74
2023/09/18 04:28:32;;;;;;;21.95;14.90;;;;;;;;;;5138394;27;20698;-74
2023/09/18 04:30:57;;;;;;;22.58;15.50;;;;;;;;;;5140822;27;20254;-74
2023/09/18 04:33:22;;;;;;;16.75;14.48;;;;;;;;;;5131253;27;20194;-74
2023/09/18 04:35:48;;;;;;;18.02;13.98;;;;;;;;;;5118431;27;20254;-74
2023/09/18 04:38:19;;;;;;;19.95;14.20;;;;;;;;;;5115950;27;20183;-74
2023/09/18 04:40:45;;;;;;;17.45;13.75;;;;;;;;;;5138524;27;20193;-74
2023/09/18 04:43:11;;;;;;;18.35;13.90;;;;;;;;;;5147459;27;20190;-74
2023/09/18 04:45:36;;;;;;;17.42;12.45;;;;;;;;;;5138704;27;20197;-74
2023/09/18 04:48:02;;;;;;;21.75;13.10;;;;;;;;;;5134429;27;20239;-74
2023/09/18 04:50:28;;;;;;;22.02;13.40;;;;;;;;;;5138690;27;20190;-74
2023/09/18 04:52:55;;;;;;;18.48;12.60;;;;;;;;;;5144229;27;20201;-74
2023/09/18 04:55:21;;;;;;;18.77;13.40;;;;;;;;;;5147137;27;20294;-74
2023/09/18 04:57:46;;;;;;;15.70;12.52;;;;;;;;;;5113738;27;20528;-74
2023/09/18 05:00:12;;;;;;;15.82;13.18;;;;;;;;;;5117603;27;20215;-74
2023/09/18 05:02:38;;;;;;;14.82;11.65;;;;;;;;;;5114494;27;20191;-75
2023/09/18 05:05:04;;;;;;;19.40;12.20;;;;;;;;;;5120122;27;20183;-74
2023/09/18 05:07:30;;;;;;;17.65;11.52;;;;;;;;;;5107723;27;20325;-75
2023/09/18 05:09:55;;;;;;;16.52;11.38;;;;;;;;;;5119024;27;20221;-74
2023/09/18 05:12:22;;;;;;;16.55;10.88;;;;;;;;;;5122325;27;20230;-73
2023/09/18 05:14:47;;;;;;;16.30;10.18;;;;;;;;;;5113386;27;20187;-73
2023/09/18 05:17:15;;;;;;;19.48;10.02;;;;;;;;;;5108541;28;20551;-74
2023/09/18 05:19:41;;;;;;;17.52;10.40;;;;;;;;;;5114709;27;20282;-74
2023/09/18 05:22:08;;;;;;;15.57;9.82;;;;;;;;;;5111542;27;20635;-74
2023/09/18 05:24:33;;;;;;;15.05;9.18;;;;;;;;;;5119561;27;20193;-74
2023/09/18 05:26:59;;;;;;;14.52;8.77;;;;;;;;;;5124399;27;20186;-74
2023/09/18 05:29:24;;;;;;;10.18;8.98;;;;;;;;;;5127045;27;20213;-70
2023/09/18 05:31:49;;;;;;;14.30;8.90;;;;;;;;;;5119242;27;20233;-72
2023/09/18 05:34:15;;;;;;;15.98;8.38;;;;;;;;;;5106681;28;20298;-72
2023/09/18 05:36:41;;;;;;;18.88;9.57;;;;;;;;;;5118136;27;20195;-73
2023/09/18 05:39:11;;;;;;;14.60;8.90;;;;;;;;;;5114179;27;20179;-70
2023/09/18 05:41:37;;;;;;;12.77;8.40;;;;;;;;;;5117007;27;20183;-72
2023/09/18 05:44:04;;;;;;;19.65;8.77;;;;;;;;;;5125345;27;20213;-72
2023/09/18 05:46:30;;;;;;;14.73;7.97;;;;;;;;;;5113070;27;20190;-73
2023/09/18 05:48:57;;;;;;;15.10;8.30;;;;;;;;;;5129642;27;20537;-72
2023/09/18 05:51:22;;;;;;;14.27;7.95;;;;;;;;;;5112052;28;20250;-73
2023/09/18 05:53:48;;;;;;;10.80;7.40;;;;;;;;;;5115503;27;20625;-73
2023/09/18 05:56:14;;;;;;;11.60;7.93;;;;;;;;;;5128169;27;20218;-72
2023/09/18 05:58:39;;;;;;;12.85;8.63;;;;;;;;;;5147568;27;20186;-71
2023/09/18 06:01:06;;;;;;;15.98;7.72;;;;;;;;;;5130021;27;20186;-73
2023/09/18 06:03:35;;;;;;;17.30;8.65;;;;;;;;;;5119588;27;20375;-73
2023/09/18 06:06:01;;;;;;;17.42;8.80;;;;;;;;;;5117316;27;20664;-73
2023/09/18 06:08:28;;;;;;;14.40;8.48;;;;;;;;;;5106330;27;20186;-70
2023/09/18 06:10:55;;;;;;;16.30;8.45;;;;;;;;;;5137449;27;20564;-73
2023/09/18 06:13:20;;;;;;;14.63;8.65;;;;;;;;;;5138788;27;20178;-73
2023/09/18 06:15:46;;;;;;;15.98;8.40;;;;;;;;;;5135835;27;20857;-72
2023/09/18 06:18:11;;;;;;;15.25;8.55;;;;;;;;;;5101940;27;20216;-73
2023/09/18 06:20:37;;;;;;;14.18;8.35;;;;;;;;;;5130685;27;20186;-70
2023/09/18 06:23:03;;;;;;;17.88;8.23;;;;;;;;;;5117829;27;20494;-71
2023/09/18 06:25:31;;;;;;;13.65;8.40;;;;;;;;;;5123311;27;20248;-71
2023/09/18 06:27:56;;;;;;;20.52;9.25;;;;;;;;;;5137053;27;20261;-71
2023/09/18 06:30:22;;;;;;;13.32;8.32;;;;;;;;;;5119141;27;20273;-72
2023/09/18 06:32:47;;;;;;;17.50;8.80;;;;;;;;;;5131819;27;20198;-73
2023/09/18 06:35:13;;;;;;;19.15;8.90;;;;;;;;;;5136991;27;20193;-73
2023/09/18 06:37:38;;;;;;;18.85;9.18;;;;;;;;;;5139498;27;20178;-73
2023/09/18 06:40:05;;;;;;;18.13;9.40;;;;;;;;;;5147405;27;20219;-72
2023/09/18 06:42:30;;;;;;;18.60;9.40;;;;;;;;;;5124837;27;20193;-73
2023/09/18 06:44:56;;;;;;;18.48;9.77;;;;;;;;;;5120299;27;20677;-73
2023/09/18 06:47:21;;;;;;;12.80;8.75;;;;;;;;;;5130219;27;20251;-73
2023/09/18 06:49:47;;;;;;;16.58;9.75;;;;;;;;;;5125547;27;20274;-71
2023/09/18 06:52:12;;;;;;;16.80;10.15;;;;;;;;;;5137193;27;20266;-71
2023/09/18 06:54:38;;;;;;;14.32;9.90;;;;;;;;;;5117106;27;20626;-74
2023/09/18 06:57:04;;;;;;;15.10;9.38;;;;;;;;;;5097022;28;20224;-74
2023/09/18 06:59:29;;;;;;;16.98;9.82;;;;;;;;;;5086963;28;20246;-74
2023/09/18 07:01:55;;;;;;;17.52;10.05;;;;;;;;;;5104835;28;20179;-71
2023/09/18 07:04:21;;;;;;;17.05;9.95;;;;;;;;;;5095505;28;20188;-72
2023/09/18 07:06:46;;;;;;;16.00;10.02;;;;;;;;;;5090109;28;20199;-72
2023/09/18 07:09:12;;;;;;;14.88;10.45;;;;;;;;;;5077601;28;20203;-73
2023/09/18 07:11:38;;;;;;;17.65;9.38;;;;;;;;;;5094883;28;20208;-73
2023/09/18 07:14:05;;;;;;;14.07;10.43;;;;;;;;;;5104308;28;20643;-73
2023/09/18 07:16:31;;;;;;;16.05;11.07;;;;;;;;;;5088544;28;20184;-73
2023/09/18 07:18:56;;;;;;;20.42;10.43;;;;;;;;;;5089912;28;20235;-70
2023/09/18 07:21:21;;;;;;;17.00;10.43;;;;;;;;;;5097386;27;20277;-73
2023/09/18 07:23:47;;;;;;;15.18;9.85;;;;;;;;;;5080358;28;20192;-72
2023/09/18 07:26:13;;;;;;;15.60;10.40;;;;;;;;;;5092176;28;20674;-72
2023/09/18 07:28:38;;;;;;;14.18;10.63;;;;;;;;;;5098209;28;20313;-73
2023/09/18 07:31:08;;;;;;;18.05;10.50;;;;;;;;;;5105985;28;20216;-69
2023/09/18 07:33:34;;;;;;;13.40;10.07;;;;;;;;;;5102290;28;20184;-72
2023/09/18 07:35:59;;;;;;;15.10;9.32;;;;;;;;;;5097759;28;20190;-73
2023/09/18 07:38:25;;;;;;;16.13;10.05;;;;;;;;;;5101303;28;20211;-73
2023/09/18 07:40:50;;;;;;;15.23;9.63;;;;;;;;;;5094066;28;20283;-74
2023/09/18 07:43:16;;;;;;;13.40;9.57;;;;;;;;;;5107746;28;20210;-72
2023/09/18 07:45:41;;;;;;;13.77;9.07;;;;;;;;;;5104839;28;20222;-73
2023/09/18 07:48:07;;;;;;;14.00;8.50;;;;;;;;;;5092665;28;20222;-72
2023/09/18 07:50:36;;;;;;;15.20;8.52;;;;;;;;;;5092667;28;20200;-72
2023/09/18 07:53:02;;;;;;;12.40;8.10;;;;;;;;;;5103259;28;20271;-71
2023/09/18 07:55:29;;;;;;;12.23;7.18;;;;;;;;;;5091545;27;20624;-72
2023/09/18 07:57:54;;;;;;;11.50;6.65;;;;;;;;;;5131193;27;20257;-71
2023/09/18 08:00:22;;;;;;;13.85;6.70;;;;;;;;;;5139969;27;20270;-72
2023/09/18 08:02:49;;;;;;;11.32;6.13;;;;;;;;;;5136737;27;20257;-73
2023/09/18 08:05:15;;;;;;;10.23;5.60;;;;;;;;;;5141642;27;20238;-71
2023/09/18 08:07:40;;;;;;;14.20;5.82;;;;;;;;;;5129684;27;20194;-73
2023/09/18 08:10:08;;;;;;;11.07;5.00;;;;;;;;;;5135079;27;20385;-70
2023/09/18 08:12:34;;;;;;;12.25;5.15;;;;;;;;;;5132059;27;20568;-72
2023/09/18 08:14:59;;;;;;;10.02;4.43;;;;;;;;;;5115663;27;20193;-72
2023/09/18 08:17:25;;;;;;;8.00;4.82;;;;;;;;;;5137656;27;20258;-72
2023/09/18 08:19:52;;;;;;;7.22;4.43;;;;;;;;;;5147385;27;20183;-72
2023/09/18 08:22:20;;;;;;;8.70;4.13;;;;;;;;;;5133472;27;20182;-74
2023/09/18 08:24:46;;;;;;;8.75;4.57;;;;;;;;;;5146892;27;20677;-72
2023/09/18 08:27:16;;;;;;;13.05;5.22;;;;;;;;;;5136263;27;20705;-71
2023/09/18 08:29:42;;;;;;;9.13;4.43;;;;;;;;;;5138690;27;20187;-72
2023/09/18 08:32:07;;;;;;;10.82;4.82;;;;;;;;;;5131226;27;20580;-70
2023/09/18 08:34:33;;;;;;;7.38;4.45;;;;;;;;;;5134999;27;20189;-72
2023/09/18 08:36:58;;;;;;;9.70;4.70;;;;;;;;;;5135732;27;20186;-72
2023/09/18 08:39:23;;;;;;;8.60;4.50;;;;;;;;;;5129036;27;20190;-69
2023/09/18 08:41:54;;;;;;;11.95;4.50;;;;;;;;;;5149997;27;20545;-71
2023/09/18 08:44:23;;;;;;;9.05;4.32;;;;;;;;;;5134314;27;20231;-71
2023/09/18 08:46:49;;;;;;;11.77;5.15;;;;;;;;;;5130967;27;20218;-71
2023/09/18 08:49:15;;;;;;;9.88;4.63;;;;;;;;;;5123228;27;20218;-71
2023/09/18 08:51:42;;;;;;;11.10;4.38;;;;;;;;;;5115853;27;20331;-69
2023/09/18 08:54:08;;;;;;;10.48;4.40;;;;;;;;;;5111112;27;20265;-70
2023/09/18 08:56:34;;;;;;;6.43;4.05;;;;;;;;;;5134813;27;20268;-70
2023/09/18 08:59:00;;;;;;;8.95;4.22;;;;;;;;;;5133884;27;20191;-72
2023/09/18 09:01:25;;;;;;;9.05;4.18;;;;;;;;;;5128436;27;20275;-69
2023/09/18 09:03:51;;;;;;;7.70;3.67;;;;;;;;;;5138458;27;20337;-70
2023/09/18 09:06:16;;;;;;;10.43;3.60;;;;;;;;;;5147919;27;20274;-75
2023/09/18 09:08:42;;;;;;;10.85;4.47;;;;;;;;;;5110559;27;20190;-71
2023/09/18 09:11:08;;;;;;;12.18;4.25;;;;;;;;;;5109791;27;20210;-71
2023/09/18 09:13:34;;;;;;;8.93;3.58;;;;;;;;;;5133019;27;20202;-71
2023/09/18 09:16:00;;;;;;;11.70;3.78;;;;;;;;;;5154168;27;20509;-71
2023/09/18 09:18:31;;;;;;;6.18;3.38;;;;;;;;;;5128248;27;20207;-72
2023/09/18 09:20:59;;;;;;;5.03;3.22;;;;;;;;;;5148290;27;20185;-71
2023/09/18 09:23:29;;;;;;;6.47;3.05;;;;;;;;;;5139329;27;20277;-71
2023/09/18 09:26:13;;;;;;;5.65;2.78;;;;;;;;;;5134132;27;20190;-72
2023/09/18 09:28:39;;;;;;;5.05;3.03;;;;;;;;;;5121815;27;20235;-70
2023/09/18 09:31:05;;;;;;;6.25;3.25;;;;;;;;;;5143952;27;20259;-70
2023/09/18 09:33:31;;;;;;;5.00;2.83;;;;;;;;;;5130797;27;20183;-71
2023/09/18 09:35:57;;;;;;;5.75;3.00;;;;;;;;;;5130231;27;20281;-70
2023/09/18 09:38:31;;;;;;;3.35;2.63;;;;;;;;;;5141306;27;20248;-71
2023/09/18 09:40:59;;;;;;;5.53;2.28;;;;;;;;;;5132936;27;20323;-70
2023/09/18 09:43:25;;;;;;;5.13;2.85;;;;;;;;;;5131554;27;20502;-72
2023/09/18 09:46:00;;;;;;;4.78;2.28;;;;;;;;;;5145490;27;20194;-71
2023/09/18 09:48:26;;;;;;;5.15;2.15;;;;;;;;;;5151754;27;20753;-71
2023/09/18 09:50:53;;;;;;;5.80;2.40;;;;;;;;;;5150648;27;20281;-70
2023/09/18 09:53:18;;;;;;;4.47;2.28;;;;;;;;;;5134303;27;20179;-70
2023/09/18 09:55:44;;;;;;;6.65;2.55;;;;;;;;;;5130686;27;20238;-71
2023/09/18 09:58:11;;;;;;;3.65;2.10;;;;;;;;;;5144012;27;20194;-71
2023/09/18 10:00:47;;;;;;;3.53;2.10;;;;;;;;;;5130177;27;20258;-69
2023/09/18 10:03:15;;;;;;;5.15;2.33;;;;;;;;;;5128349;27;20218;-70
2023/09/18 10:05:45;;;;;;;3.58;2.25;;;;;;;;;;5130819;27;20191;-71
2023/09/18 10:08:24;;;;;;;3.20;2.10;;;;;;;;;;5132679;27;20217;-75
2023/09/18 10:10:51;;;;;;;3.80;1.90;;;;;;;;;;5132402;27;20600;-71
2023/09/18 10:13:18;;;;;;;3.97;2.28;;;;;;;;;;5120960;27;20210;-70
2023/09/18 10:15:46;;;;;;;5.55;2.10;;;;;;;;;;5148732;27;20698;-72
2023/09/18 10:18:49;;;;;;;5.75;2.00;;;;;;;;;;5119658;27;20222;-71
2023/09/18 10:21:24;;;;;;;2.38;1.80;;;;;;;;;;5147317;27;20535;-71
2023/09/18 10:24:12;;;;;;;3.95;1.80;;;;;;;;;;5142032;27;20626;-72
2023/09/18 10:26:46;;;;;;;1.90;1.60;;;;;;;;;;5112165;28;20304;-74
2023/09/18 10:29:14;;;;;;;6.18;2.05;;;;;;;;;;5132893;27;20260;-73
2023/09/18 10:31:41;;;;;;;3.90;2.15;;;;;;;;;;5111637;28;20251;-72
2023/09/18 10:34:07;;;;;;;3.45;2.08;;;;;;;;;;5131655;27;20194;-71
2023/09/18 10:36:34;;;;;;;6.57;2.10;;;;;;;;;;5124851;27;20194;-70
2023/09/18 10:39:00;;;;;;;4.38;1.63;;;;;;;;;;5152508;27;20191;-70
2023/09/18 10:41:26;;;;;;;2.58;1.70;;;;;;;;;;5141687;27;20242;-72
2023/09/18 10:43:58;;;;;;;2.92;1.60;;;;;;;;;;5126959;27;20190;-71
2023/09/18 10:46:25;;;;;;;3.42;1.58;;;;;;;;;;5136081;27;20270;-71
2023/09/18 10:48:52;;;;;;;5.78;1.90;;;;;;;;;;5138244;27;20190;-72
2023/09/18 10:51:22;;;;;;;6.72;1.65;;;;;;;;;;5139369;27;20206;-71
2023/09/18 10:53:48;;;;;;;4.57;1.70;;;;;;;;;;5144147;27;20212;-72
2023/09/18 10:56:17;;;;;;;3.60;2.15;;;;;;;;;;5090810;28;20530;-73
2023/09/18 10:58:43;;;;;;;3.88;1.90;;;;;;;;;;5101611;28;20673;-74
2023/09/18 11:01:12;;;;;;;3.42;1.80;;;;;;;;;;5093296;27;20177;-72
2023/09/18 11:03:39;;;;;;;3.08;1.95;;;;;;;;;;5100451;28;20191;-71
2023/09/18 11:06:09;;;;;;;4.07;1.80;;;;;;;;;;5095087;27;20635;-71
2023/09/18 11:08:45;;;;;;;6.18;1.75;;;;;;;;;;5095597;27;20658;-71
2023/09/18 11:11:16;;;;;;;3.22;1.63;;;;;;;;;;5111661;28;20191;-74
2023/09/18 11:13:46;;;;;;;3.45;1.77;;;;;;;;;;5092163;28;20180;-74
2023/09/18 11:16:28;;;;;;;3.38;1.90;;;;;;;;;;5103857;28;20663;-70
2023/09/18 11:19:05;;;;;;;2.20;1.60;;;;;;;;;;5093087;28;20212;-75
2023/09/18 11:21:32;;;;;;;3.88;1.50;;;;;;;;;;5105263;28;20273;-70
2023/09/18 11:24:04;;;;;;;3.25;1.83;;;;;;;;;;5090663;28;20615;-71
2023/09/18 11:26:34;;;;;;;4.25;1.83;;;;;;;;;;5099964;28;20586;-71
2023/09/18 11:29:09;;;;;;;3.85;1.90;;;;;;;;;;5094081;28;20202;-70
2023/09/18 11:31:53;;;;;;;3.38;1.67;;;;;;;;;;5091139;28;20650;-73
2023/09/18 11:34:28;;;;;;;5.25;1.83;;;;;;;;;;5091652;28;20510;-70
2023/09/18 11:36:54;;;;;;;4.70;1.90;;;;;;;;;;5102984;28;20191;-69
2023/09/18 11:39:40;;;;;;;5.47;2.10;;;;;;;;;;5096944;28;20265;-71
2023/09/18 11:42:19;;;;;;;5.03;1.73;;;;;;;;;;5097192;27;20184;-72
2023/09/18 11:44:47;;;;;;;7.30;2.00;;;;;;;;;;5098374;28;20203;-74
2023/09/18 11:47:19;;;;;;;4.55;2.15;;;;;;;;;;5097211;28;20639;-75
2023/09/18 11:49:56;;;;;;;2.42;1.52;;;;;;;;;;5090007;28;20488;-72
2023/09/18 11:52:22;;;;;;;5.53;2.00;;;;;;;;;;5101911;28;20756;-72
2023/09/18 11:54:48;;;;;;;4.28;2.13;;;;;;;;;;5095854;28;20179;-70
2023/09/18 11:57:14;;;;;;;5.57;1.83;;;;;;;;;;5132726;27;20697;-71
2023/09/18 11:59:42;;;;;;;3.92;1.88;;;;;;;;;;5134340;27;20606;-71
2023/09/18 12:02:08;;;;;;;5.25;1.90;;;;;;;;;;5143280;27;20221;-71
2023/09/18 12:04:34;;;;;;;5.38;2.33;;;;;;;;;;5150977;27;20243;-70
2023/09/18 12:07:02;;;;;;;3.97;2.15;;;;;;;;;;5131325;27;20182;-71
2023/09/18 12:09:32;;;;;;;3.72;1.98;;;;;;;;;;5141108;27;20190;-72
2023/09/18 12:12:03;;;;;;;5.03;2.20;;;;;;;;;;5144783;27;20198;-71
2023/09/18 12:14:30;;;;;;;4.10;1.98;;;;;;;;;;5122441;27;20193;-73
2023/09/18 12:16:57;;;;;;;5.55;2.50;;;;;;;;;;5134072;27;20202;-74
2023/09/18 12:19:23;;;;;;;3.33;2.10;;;;;;;;;;5130580;27;20247;-71
2023/09/18 12:21:49;;;;;;;6.82;2.15;;;;;;;;;;5129911;27;20235;-72
2023/09/18 12:24:24;;;;;;;5.75;2.50;;;;;;;;;;5118118;27;20589;-70
2023/09/18 12:26:51;;;;;;;5.95;2.72;;;;;;;;;;5147121;27;20610;-70
2023/09/18 12:29:17;;;;;;;6.10;2.42;;;;;;;;;;5133081;27;20544;-71
2023/09/18 12:31:45;;;;;;;5.68;2.47;;;;;;;;;;5112125;27;20470;-71
2023/09/18 12:34:18;;;;;;;4.00;2.40;;;;;;;;;;5133377;27;20543;-71
2023/09/18 12:36:47;;;;;;;6.10;2.40;;;;;;;;;;5140004;27;20190;-71
2023/09/18 12:39:16;;;;;;;6.00;2.40;;;;;;;;;;5114025;27;20242;-71
2023/09/18 12:41:42;;;;;;;3.15;2.08;;;;;;;;;;5142549;27;20182;-71
2023/09/18 12:44:10;;;;;;;5.18;2.45;;;;;;;;;;5136183;27;20194;-70
2023/09/18 12:46:36;;;;;;;7.65;1.92;;;;;;;;;;5145344;27;20237;-71
2023/09/18 12:49:18;;;;;;;5.43;2.30;;;;;;;;;;5121160;27;20186;-73
2023/09/18 12:51:44;;;;;;;5.22;2.33;;;;;;;;;;5112260;27;20245;-72
2023/09/18 12:54:11;;;;;;;5.13;2.30;;;;;;;;;;5124696;27;20703;-73
2023/09/18 12:56:43;;;;;;;6.03;2.30;;;;;;;;;;5133428;27;20227;-70
2023/09/18 12:59:08;;;;;;;2.92;2.30;;;;;;;;;;5150552;27;20189;-72
2023/09/18 13:01:34;;;;;;;4.28;2.30;;;;;;;;;;5142434;27;20187;-71
2023/09/18 13:04:05;;;;;;;3.58;2.30;;;;;;;;;;5134505;27;20264;-71
2023/09/18 13:06:31;;;;;;;7.57;2.50;;;;;;;;;;5126581;27;20192;-71
2023/09/18 13:09:15;;;;;;;5.50;2.30;;;;;;;;;;5120036;27;20178;-72
2023/09/18 13:11:55;;;;;;;8.20;2.63;;;;;;;;;;5135293;27;20211;-72
2023/09/18 13:14:20;;;;;;;3.50;2.42;;;;;;;;;;5118747;27;20187;-72
2023/09/18 13:16:46;;;;;;;4.13;2.45;;;;;;;;;;5131112;27;20591;-72
2023/09/18 13:19:11;;;;;;;5.72;2.40;;;;;;;;;;5136966;27;20179;-72
2023/09/18 13:21:37;;;;;;;3.67;2.60;;;;;;;;;;5135408;27;20186;-71
2023/09/18 13:24:06;;;;;;;4.38;2.72;;;;;;;;;;5122433;27;20190;-71
2023/09/18 13:26:31;;;;;;;4.00;2.40;;;;;;;;;;5136534;27;20193;-72
2023/09/18 13:28:56;;;;;;;7.05;2.72;;;;;;;;;;5131687;27;20285;-72
2023/09/18 13:31:22;;;;;;;5.80;2.42;;;;;;;;;;5138052;27;20230;-71
2023/09/18 13:33:47;;;;;;;4.15;1.95;;;;;;;;;;5130697;27;20613;-72
2023/09/18 13:36:12;;;;;;;5.40;2.90;;;;;;;;;;5097826;27;20186;-71
2023/09/18 13:38:38;;;;;;;2.88;2.20;;;;;;;;;;5139355;27;20193;-73
2023/09/18 13:41:05;;;;;;;4.38;2.70;;;;;;;;;;5117781;27;20186;-71
2023/09/18 13:43:34;;;;;;;3.47;2.40;;;;;;;;;;5144941;27;20190;-72
2023/09/18 13:46:00;;;;;;;4.68;2.40;;;;;;;;;;5140989;27;20502;-71
2023/09/18 13:48:26;;;;;;;4.53;2.50;;;;;;;;;;5134554;27;20628;-72
2023/09/18 13:50:52;;;;;;;6.38;2.50;;;;;;;;;;5132843;27;20601;-71
2023/09/18 13:53:18;;;;;;;7.05;2.58;;;;;;;;;;5143050;27;20198;-71
2023/09/18 13:55:44;;;;;;;6.32;2.90;;;;;;;;;;5135940;27;20427;-71
2023/09/18 13:58:10;;;;;;;7.05;2.60;;;;;;;;;;5129945;27;20190;-71
2023/09/18 14:00:36;;;;;;;4.32;2.38;;;;;;;;;;5121094;27;20206;-71
2023/09/18 14:03:02;;;;;;;8.35;2.50;;;;;;;;;;5142789;27;20193;-72
2023/09/18 14:05:29;;;;;;;7.70;2.78;;;;;;;;;;5134645;27;20640;-71
2023/09/18 14:07:59;;;;;;;5.13;2.53;;;;;;;;;;5135491;27;20217;-71
2023/09/18 14:10:26;;;;;;;7.82;2.40;;;;;;;;;;5138187;27;20273;-71
2023/09/18 14:12:51;;;;;;;5.45;2.72;;;;;;;;;;5138685;27;20217;-70
2023/09/18 14:15:18;;;;;;;4.22;2.45;;;;;;;;;;5111234;27;20186;-71
2023/09/18 14:17:43;;;;;;;5.90;2.60;;;;;;;;;;5120909;27;20695;-72
2023/09/18 14:20:10;;;;;;;6.05;2.65;;;;;;;;;;5139283;27;20197;-71
2023/09/18 14:22:35;;;;;;;4.82;2.30;;;;;;;;;;5141385;27;20544;-73
2023/09/18 14:25:04;;;;;;;3.67;2.10;;;;;;;;;;5160291;27;20212;-74
2023/09/18 14:27:30;;;;;;;6.13;2.20;;;;;;;;;;5132501;27;20190;-70
2023/09/18 14:29:56;;;;;;;6.60;2.42;;;;;;;;;;5144279;27;20186;-71
2023/09/18 14:32:22;;;;;;;4.53;2.20;;;;;;;;;;5115489;27;20213;-71